createdAt,value
2019-02-07T00:00:50.898Z,45.23
2019-02-07T00:03:38.383Z,37.70
2019-02-07T00:06:26.071Z,40.27
2019-02-07T00:09:13.904Z,42.00
2019-02-07T00:12:01.562Z,41.70
2019-02-07T00:14:49.155Z,35.70
2019-02-07T00:17:37.161Z,35.80
2019-02-07T00:20:25.160Z,33.33
2019-02-07T00:23:12.788Z,32.03
2019-02-07T00:26:00.467Z,49.13
2019-02-07T00:28:48.320Z,39.17
2019-02-07T00:31:36.248Z,41.27
2019-02-07T00:34:23.957Z,35.80
2019-02-07T00:37:11.745Z,36.63
2019-02-07T00:39:59.668Z,37.07
2019-02-07T00:42:47.592Z,41.17
2019-02-07T00:45:35.220Z,38.17
2019-02-07T00:48:22.962Z,39.90
2019-02-07T00:51:10.656Z,42.27
2019-02-07T00:53:58.160Z,38.87
2019-02-07T00:56:46.017Z,39.03
2019-02-07T00:59:33.976Z,37.27
2019-02-07T01:02:21.708Z,37.80
2019-02-07T01:05:10.393Z,39.10
2019-02-07T01:07:58.377Z,42.73
2019-02-07T01:10:46.076Z,34.60
2019-02-07T01:13:33.992Z,38.70
2019-02-07T01:16:21.879Z,32.40
2019-02-07T01:19:09.680Z,36.30
2019-02-07T01:21:57.614Z,32.63
2019-02-07T01:24:45.432Z,29.80
2019-02-07T01:27:33.121Z,33.20
2019-02-07T01:30:21.832Z,37.63
2019-02-07T01:33:09.492Z,36.23
2019-02-07T01:35:57.720Z,42.27
2019-02-07T01:38:45.611Z,36.60
2019-02-07T01:41:33.519Z,27.00
2019-02-07T01:44:21.229Z,41.43
2019-02-07T01:47:09.444Z,38.27
2019-02-07T01:49:57.152Z,36.57
2019-02-07T01:52:45.092Z,21.73
2019-02-07T01:55:33.096Z,40.70
2019-02-07T01:58:21.334Z,29.73
2019-02-07T02:01:08.975Z,43.57
2019-02-07T02:03:56.638Z,43.67
2019-02-07T02:06:44.625Z,25.57
2019-02-07T02:09:32.516Z,41.20
2019-02-07T02:12:20.183Z,37.03
2019-02-07T02:15:08.332Z,39.00
2019-02-07T02:17:56.405Z,37.13
2019-02-07T02:20:44.320Z,31.90
2019-02-07T02:23:32.285Z,45.50
2019-02-07T02:26:19.865Z,37.80
2019-02-07T02:29:07.763Z,31.10
2019-02-07T02:31:55.459Z,38.37
2019-02-07T02:34:43.135Z,39.77
2019-02-07T02:37:30.907Z,37.67
2019-02-07T02:40:18.775Z,27.50
2019-02-07T02:43:06.436Z,26.70
2019-02-07T02:45:54.137Z,38.90
2019-02-07T02:48:42.005Z,32.83
2019-02-07T02:51:29.920Z,34.77
2019-02-07T02:54:43.167Z,42.47
2019-02-07T02:57:31.487Z,33.00
2019-02-07T03:00:22.825Z,35.27
2019-02-07T03:03:32.724Z,37.63
2019-02-07T03:06:44.387Z,34.50
2019-02-07T03:09:54.585Z,35.03
2019-02-07T03:13:00.425Z,44.87
2019-02-07T03:16:13.379Z,45.67
2019-02-07T03:19:20.111Z,46.90
2019-02-07T03:22:20.153Z,27.67
2019-02-07T03:25:29.960Z,28.90
2019-02-07T03:28:39.287Z,37.87
2019-02-07T03:31:48.686Z,37.80
2019-02-07T03:34:54.604Z,40.87
2019-02-07T03:38:14.119Z,35.13
2019-02-07T03:41:19.597Z,21.83
2019-02-07T03:44:23.099Z,30.90
2019-02-07T03:47:42.551Z,27.47
2019-02-07T03:50:55.408Z,37.37
2019-02-07T03:53:57.649Z,30.97
2019-02-07T03:57:10.609Z,35.63
2019-02-07T04:00:17.431Z,33.03
2019-02-07T04:03:27.177Z,38.77
2019-02-07T04:06:36.654Z,31.20
2019-02-07T04:10:01.810Z,30.00
2019-02-07T04:13:14.487Z,46.77
2019-02-07T04:16:15.476Z,40.67
2019-02-07T04:19:19.123Z,42.77
2019-02-07T04:22:18.837Z,43.67
2019-02-07T04:25:37.945Z,42.00
2019-02-07T04:28:48.052Z,39.73
2019-02-07T04:31:46.767Z,37.67
2019-02-07T04:35:08.999Z,34.03
2019-02-07T04:38:14.581Z,33.77
2019-02-07T04:41:20.329Z,33.47
2019-02-07T04:44:27.324Z,38.63
2019-02-07T04:47:32.990Z,32.23
2019-02-07T04:50:43.122Z,43.57
2019-02-07T04:53:53.033Z,25.83
2019-02-07T04:56:58.563Z,24.40
2019-02-07T05:00:04.224Z,24.20
2019-02-07T05:03:10.073Z,38.70
2019-02-07T05:06:06.631Z,39.47
2019-02-07T05:09:07.997Z,37.27
2019-02-07T05:12:02.084Z,36.37
2019-02-07T05:15:07.830Z,22.10
2019-02-07T05:18:12.144Z,36.10
2019-02-07T05:21:08.603Z,36.10
2019-02-07T05:24:12.905Z,37.93
2019-02-07T05:27:18.071Z,36.43
2019-02-07T05:30:33.126Z,39.67
2019-02-07T05:33:38.685Z,38.67
2019-02-07T05:36:54.809Z,27.87
2019-02-07T05:40:00.544Z,34.87
2019-02-07T05:42:59.852Z,32.23
2019-02-07T05:46:04.282Z,41.93
2019-02-07T05:49:20.578Z,36.20
2019-02-07T05:52:30.256Z,42.37
2019-02-07T05:55:57.880Z,31.10
2019-02-07T05:59:08.761Z,37.97
2019-02-07T06:02:04.403Z,39.63
2019-02-07T06:05:09.602Z,36.93
2019-02-07T06:08:25.846Z,40.70
2019-02-07T06:11:48.084Z,48.60
2019-02-07T06:14:54.198Z,40.17
2019-02-07T06:18:01.010Z,39.30
2019-02-07T06:21:00.084Z,25.50
2019-02-07T06:24:10.137Z,42.20
2019-02-07T06:27:15.348Z,40.40
2019-02-07T06:30:10.488Z,34.47
2019-02-07T06:33:17.381Z,42.30
2019-02-07T06:36:16.469Z,34.40
2019-02-07T06:39:15.920Z,50.40
2019-02-07T06:42:29.755Z,34.07
2019-02-07T06:45:35.511Z,38.87
2019-02-07T06:49:00.704Z,40.77
2019-02-07T06:52:21.566Z,34.53
2019-02-07T06:55:37.809Z,38.37
2019-02-07T06:58:43.795Z,40.37
2019-02-07T07:02:08.697Z,28.33
2019-02-07T07:05:13.971Z,41.63
2019-02-07T07:08:26.876Z,39.87
2019-02-07T07:11:32.403Z,36.37
2019-02-07T07:14:27.724Z,32.23
2019-02-07T07:17:37.479Z,39.77
2019-02-07T07:20:43.264Z,38.53
2019-02-07T07:23:49.113Z,37.07
2019-02-07T07:26:54.982Z,37.00
2019-02-07T07:30:14.260Z,39.63
2019-02-07T07:33:36.455Z,37.57
2019-02-07T07:36:43.724Z,36.77
2019-02-07T07:39:46.017Z,40.77
2019-02-07T07:42:52.635Z,41.90
2019-02-07T07:46:18.024Z,44.50
2019-02-07T07:49:27.652Z,12.40
2019-02-07T07:52:26.538Z,36.37
2019-02-07T07:55:32.222Z,13.07
2019-02-07T07:58:37.810Z,24.83
2019-02-07T08:01:43.767Z,22.33
2019-02-07T08:04:51.114Z,17.07
2019-02-07T08:08:16.264Z,18.47
2019-02-07T08:11:23.662Z,19.53
2019-02-07T08:14:39.625Z,16.83
2019-02-07T08:17:49.376Z,36.83
2019-02-07T08:20:54.886Z,14.60
2019-02-07T08:23:51.756Z,28.70
2019-02-07T08:27:17.272Z,15.33
2019-02-07T08:30:35.034Z,24.23
2019-02-07T08:33:32.961Z,29.13
2019-02-07T08:36:38.596Z,39.13
2019-02-07T08:39:45.894Z,17.33
2019-02-07T08:43:08.197Z,24.07
2019-02-07T08:46:13.789Z,15.43
2019-02-07T08:49:11.222Z,19.33
2019-02-07T08:52:16.832Z,15.60
2019-02-07T08:55:23.061Z,25.37
2019-02-07T08:58:39.183Z,20.43
2019-02-07T09:01:45.745Z,13.57
2019-02-07T09:04:52.275Z,26.50
2019-02-07T09:08:10.882Z,23.73
2019-02-07T09:11:30.164Z,20.70
2019-02-07T09:14:43.041Z,24.33
2019-02-07T09:17:49.875Z,29.50
2019-02-07T09:20:55.339Z,27.53
2019-02-07T09:24:02.275Z,14.50
2019-02-07T09:27:07.771Z,29.37
2019-02-07T09:30:30.509Z,13.87
2019-02-07T09:33:37.286Z,26.63
2019-02-07T09:36:35.159Z,13.40
2019-02-07T09:39:45.133Z,17.50
2019-02-07T09:42:43.184Z,10.57
2019-02-07T09:45:53.409Z,20.47
2019-02-07T09:48:59.137Z,10.70
2019-02-07T09:52:05.126Z,11.80
2019-02-07T09:55:11.179Z,19.80
2019-02-07T09:58:21.120Z,12.07
2019-02-07T10:01:42.726Z,16.73
2019-02-07T10:04:39.532Z,7.97
2019-02-07T10:07:46.416Z,12.20
2019-02-07T10:10:42.774Z,17.70
2019-02-07T10:13:45.045Z,11.43
2019-02-07T10:16:47.729Z,16.53
2019-02-07T10:19:48.029Z,20.13
2019-02-07T10:23:11.066Z,51.93
2019-02-07T10:26:15.749Z,52.97
2019-02-07T10:29:26.404Z,54.70
2019-02-07T10:32:42.701Z,35.90
2019-02-07T10:35:46.527Z,47.20
2019-02-07T10:38:42.148Z,46.43
2019-02-07T10:41:39.547Z,52.83
2019-02-07T10:44:55.436Z,43.23
2019-02-07T10:48:00.967Z,38.93
2019-02-07T10:51:11.008Z,50.87
2019-02-07T10:54:10.912Z,49.67
2019-02-07T10:57:20.355Z,44.40
2019-02-07T11:00:47.284Z,33.73
2019-02-07T11:03:53.042Z,44.80
2019-02-07T11:06:58.986Z,29.67
2019-02-07T11:10:05.258Z,35.93
2019-02-07T11:13:18.428Z,48.53
2019-02-07T11:16:23.708Z,56.03
2019-02-07T11:19:29.535Z,30.63
2019-02-07T11:22:32.329Z,44.57
2019-02-07T11:25:42.292Z,37.60
2019-02-07T11:28:52.210Z,53.03
2019-02-07T11:31:56.749Z,50.53
2019-02-07T11:35:02.649Z,42.60
2019-02-07T11:38:02.423Z,51.37
2019-02-07T11:41:01.503Z,45.33
2019-02-07T11:43:56.946Z,54.63
2019-02-07T11:47:05.487Z,51.70
2019-02-07T11:50:09.192Z,54.00
2019-02-07T11:53:15.531Z,49.67
2019-02-07T11:56:22.249Z,46.40
2019-02-07T11:59:27.887Z,48.37
2019-02-07T12:02:35.476Z,38.43
2019-02-07T12:05:32.288Z,34.33
2019-02-07T12:08:48.420Z,37.20
2019-02-07T12:11:58.215Z,36.33
2019-02-07T12:15:04.539Z,31.70
2019-02-07T12:18:05.674Z,35.27
2019-02-07T12:21:11.477Z,26.57
2019-02-07T12:24:36.680Z,30.37
2019-02-07T12:27:42.020Z,30.33
2019-02-07T12:30:49.246Z,21.83
2019-02-07T12:34:02.197Z,30.27
2019-02-07T12:37:05.174Z,36.60
2019-02-07T12:40:12.280Z,32.90
2019-02-07T12:43:19.056Z,39.37
2019-02-07T12:46:25.331Z,40.60
2019-02-07T12:49:33.401Z,29.30
2019-02-07T12:52:42.221Z,48.47
2019-02-07T12:55:52.389Z,33.57
2019-02-07T12:58:56.093Z,39.33
2019-02-07T13:01:56.763Z,29.13
2019-02-07T13:05:06.961Z,28.67
2019-02-07T13:08:12.565Z,27.23
2019-02-07T13:11:26.943Z,37.93
2019-02-07T13:14:26.750Z,33.77
2019-02-07T13:17:36.997Z,31.83
2019-02-07T13:20:50.057Z,39.90
2019-02-07T13:24:12.284Z,34.73
2019-02-07T13:27:18.242Z,32.00
2019-02-07T13:30:33.898Z,28.57
2019-02-07T13:33:39.952Z,28.30
2019-02-07T13:36:45.497Z,25.90
2019-02-07T13:39:51.400Z,29.23
2019-02-07T13:42:56.638Z,26.97
2019-02-07T13:46:10.149Z,29.80
2019-02-07T13:49:17.025Z,41.83
2019-02-07T13:52:29.583Z,26.00
2019-02-07T13:55:32.055Z,31.10
2019-02-07T13:58:38.756Z,61.00
2019-02-07T14:01:45.504Z,12.87
2019-02-07T14:04:51.265Z,21.37
2019-02-07T14:08:07.218Z,13.83
2019-02-07T14:11:03.679Z,17.50
2019-02-07T14:14:20.005Z,10.43
2019-02-07T14:17:33.375Z,17.70
2019-02-07T14:20:39.308Z,23.97
2019-02-07T14:23:45.461Z,10.47
2019-02-07T14:26:51.137Z,13.53
2019-02-07T14:29:58.228Z,13.30
2019-02-07T14:33:04.039Z,25.50
2019-02-07T14:36:22.409Z,13.80
2019-02-07T14:39:41.260Z,20.10
2019-02-07T14:42:38.617Z,16.37
2019-02-07T14:45:36.099Z,11.63
2019-02-07T14:48:25.066Z,11.17
2019-02-07T14:51:12.636Z,18.83
2019-02-07T14:54:00.827Z,13.20
2019-02-07T14:56:49.007Z,12.70
2019-02-07T14:59:36.764Z,11.90
2019-02-07T15:02:24.519Z,15.87
2019-02-07T15:05:12.471Z,14.60
2019-02-07T15:08:00.162Z,8.40
2019-02-07T15:10:48.174Z,16.53
2019-02-07T15:13:36.148Z,13.80
2019-02-07T15:16:24.356Z,13.47
2019-02-07T15:19:12.095Z,18.17
2019-02-07T15:22:00.205Z,10.30
2019-02-07T15:24:47.804Z,18.50
2019-02-07T15:27:35.448Z,10.90
2019-02-07T15:30:23.328Z,23.63
2019-02-07T15:33:11.123Z,17.20
2019-02-07T15:35:59.099Z,10.57
2019-02-07T15:38:46.805Z,15.27
2019-02-07T15:41:34.413Z,17.57
2019-02-07T15:44:23.264Z,19.83
2019-02-07T15:47:12.163Z,8.17
2019-02-07T15:50:00.036Z,17.07
2019-02-07T15:52:47.888Z,10.60
2019-02-07T15:55:35.620Z,14.40
2019-02-07T15:58:33.274Z,9.70
2019-02-07T16:01:34.407Z,14.67
2019-02-07T16:04:28.225Z,22.83
2019-02-07T16:07:16.172Z,14.17
2019-02-07T16:10:07.171Z,12.07
2019-02-07T16:12:54.987Z,20.00
2019-02-07T16:15:42.870Z,9.07
2019-02-07T16:18:30.698Z,5.80
2019-02-07T16:21:18.402Z,14.30
2019-02-07T16:24:06.524Z,18.45
2019-02-07T16:26:54.513Z,45.93
2019-02-07T16:29:43.538Z,47.77
2019-02-07T16:32:31.659Z,48.03
2019-02-07T16:35:20.462Z,44.83
2019-02-07T16:38:08.152Z,43.00
2019-02-07T16:40:58.082Z,46.00
2019-02-07T16:43:45.861Z,45.87
2019-02-07T16:46:33.671Z,45.67
2019-02-07T16:49:21.455Z,54.17
2019-02-07T16:52:13.469Z,48.90
2019-02-07T16:55:01.227Z,50.23
2019-02-07T16:57:49.030Z,48.40
2019-02-07T17:00:36.713Z,45.37
2019-02-07T17:03:24.819Z,54.60
2019-02-07T17:06:13.288Z,48.60
2019-02-07T17:09:01.759Z,48.70
2019-02-07T17:11:49.823Z,50.63
2019-02-07T17:14:37.728Z,48.63
2019-02-07T17:17:25.652Z,47.20
2019-02-07T17:20:25.383Z,50.57
2019-02-07T17:23:13.031Z,36.00
2019-02-07T17:26:00.997Z,26.90
2019-02-07T17:28:49.171Z,38.63
2019-02-07T17:31:37.228Z,55.67
2019-02-07T17:34:25.116Z,35.37
2019-02-07T17:37:13.104Z,44.50
2019-02-07T17:40:01.189Z,41.63
2019-02-07T17:42:49.103Z,50.40
2019-02-07T17:45:36.794Z,25.13
2019-02-07T17:48:24.956Z,37.37
2019-02-07T17:51:22.593Z,50.60
2019-02-07T17:54:02.349Z,54.00
2019-02-07T17:56:50.140Z,50.20
2019-02-07T17:59:38.430Z,50.60
2019-02-07T18:02:26.408Z,54.57
2019-02-07T18:05:14.290Z,42.80
2019-02-07T18:08:02.860Z,41.47
2019-02-07T18:10:50.599Z,49.30
2019-02-07T18:13:38.536Z,41.30
2019-02-07T18:16:26.863Z,43.70
2019-02-07T18:19:14.972Z,40.63
2019-02-07T18:22:02.629Z,47.03
2019-02-07T18:24:52.170Z,45.00
2019-02-07T18:27:41.899Z,43.87
2019-02-07T18:30:29.101Z,44.23
2019-02-07T18:33:16.646Z,103.63
2019-02-07T18:36:03.994Z,41.83
2019-02-07T18:38:53.439Z,42.60
2019-02-07T18:41:41.713Z,42.03
2019-02-07T18:44:30.024Z,44.53
2019-02-07T18:47:17.731Z,45.87
2019-02-07T18:50:07.016Z,46.70
2019-02-07T18:52:54.903Z,48.27
2019-02-07T18:55:42.530Z,41.13
2019-02-07T18:58:30.402Z,40.83
2019-02-07T19:01:18.070Z,47.40
2019-02-07T19:04:06.492Z,36.17
2019-02-07T19:06:54.440Z,38.23
2019-02-07T19:09:42.871Z,40.50
2019-02-07T19:12:30.566Z,46.37
2019-02-07T19:15:21.641Z,44.27
2019-02-07T19:18:09.731Z,49.57
2019-02-07T19:20:57.768Z,52.33
2019-02-07T19:23:45.701Z,44.00
2019-02-07T19:26:33.601Z,44.20
2019-02-07T19:29:22.349Z,45.33
2019-02-07T19:32:11.215Z,43.70
2019-02-07T19:34:59.220Z,43.57
2019-02-07T19:37:47.441Z,41.60
2019-02-07T19:40:34.964Z,35.40
2019-02-07T19:43:22.891Z,42.27
2019-02-07T19:46:10.905Z,41.23
2019-02-07T19:48:58.837Z,39.83
2019-02-07T19:51:46.583Z,46.30
2019-02-07T19:54:34.201Z,42.77
2019-02-07T19:57:21.959Z,47.43
2019-02-07T20:00:16.131Z,35.30
2019-02-07T20:03:03.747Z,46.97
2019-02-07T20:05:51.866Z,38.57
2019-02-07T20:08:39.956Z,51.40
2019-02-07T20:11:27.800Z,49.30
2019-02-07T20:14:15.526Z,51.67
2019-02-07T20:17:03.556Z,47.70
2019-02-07T20:19:51.654Z,53.77
2019-02-07T20:22:39.498Z,48.37
2019-02-07T20:25:27.184Z,56.90
2019-02-07T20:28:15.772Z,42.90
2019-02-07T20:31:03.893Z,35.87
2019-02-07T20:33:51.456Z,38.87
2019-02-07T20:36:39.338Z,42.53
2019-02-07T20:39:27.326Z,47.03
2019-02-07T20:42:15.496Z,45.90
2019-02-07T20:45:03.364Z,49.73
2019-02-07T20:47:51.281Z,45.00
2019-02-07T20:50:39.040Z,42.53
2019-02-07T20:53:27.127Z,38.97
2019-02-07T20:56:14.723Z,38.30
2019-02-07T20:59:02.385Z,43.30
2019-02-07T21:01:50.183Z,46.60
2019-02-07T21:04:37.913Z,41.43
2019-02-07T21:07:25.832Z,45.47
2019-02-07T21:10:14.627Z,33.40
2019-02-07T21:13:02.401Z,49.00
2019-02-07T21:15:50.424Z,42.17
2019-02-07T21:18:38.351Z,42.90
2019-02-07T21:21:25.821Z,46.63
2019-02-07T21:24:13.628Z,51.13
2019-02-07T21:27:01.701Z,38.53
2019-02-07T21:29:49.251Z,44.33
2019-02-07T21:32:36.967Z,42.73
2019-02-07T21:35:25.039Z,49.40
2019-02-07T21:38:13.056Z,44.80
2019-02-07T21:41:00.889Z,39.53
2019-02-07T21:43:48.790Z,41.73
2019-02-07T21:46:36.527Z,36.50
2019-02-07T21:49:24.406Z,40.43
2019-02-07T21:52:12.269Z,36.17
2019-02-07T21:55:00.315Z,49.33
2019-02-07T21:57:48.107Z,43.43
2019-02-07T22:00:38.005Z,38.20
2019-02-07T22:03:25.813Z,33.80
2019-02-07T22:06:13.511Z,32.80
2019-02-07T22:09:01.415Z,27.80
2019-02-07T22:11:49.188Z,37.40
2019-02-07T22:14:37.091Z,27.23
2019-02-07T22:17:24.807Z,37.23
2019-02-07T22:20:15.326Z,37.57
2019-02-07T22:23:03.155Z,40.73
2019-02-07T22:25:51.068Z,39.70
2019-02-07T22:28:38.998Z,43.13
2019-02-07T22:31:26.589Z,34.40
2019-02-07T22:34:15.111Z,39.80
2019-02-07T22:37:02.787Z,42.97
2019-02-07T22:39:50.549Z,41.97
2019-02-07T22:42:38.534Z,27.57
2019-02-07T22:45:26.672Z,34.43
2019-02-07T22:48:14.415Z,38.90
2019-02-07T22:51:02.075Z,34.63
2019-02-07T22:53:50.593Z,27.00
2019-02-07T22:56:45.224Z,37.30
2019-02-07T22:59:27.923Z,32.50
2019-02-07T23:02:15.809Z,29.50
2019-02-07T23:05:04.039Z,36.40
2019-02-07T23:07:52.003Z,36.00
2019-02-07T23:10:39.692Z,34.70
2019-02-07T23:13:27.541Z,26.50
2019-02-07T23:16:15.609Z,33.83
2019-02-07T23:19:03.706Z,29.00
2019-02-07T23:21:51.603Z,22.67
2019-02-07T23:24:39.288Z,29.00
2019-02-07T23:27:27.224Z,32.73
2019-02-07T23:30:15.420Z,37.63
2019-02-07T23:33:03.464Z,32.90
2019-02-07T23:35:51.356Z,24.43
2019-02-07T23:38:40.535Z,38.17
2019-02-07T23:41:28.180Z,25.83
2019-02-07T23:44:16.276Z,24.10
2019-02-07T23:47:04.205Z,23.90
2019-02-07T23:49:52.220Z,29.30
2019-02-07T23:52:40.113Z,31.97
2019-02-07T23:55:28.107Z,31.47
2019-02-07T23:58:16.386Z,28.80
